sensor_id;sensor_type;location;lat;lon;timestamp;P1;durP1;ratioP1;P2;durP2;ratioP2
19727;SDS011;10015;52.530;13.390;2023-07-08T00:00:43;6.57;;;4.80;;
19727;SDS011;10015;52.530;13.390;2023-07-08T00:03:09;11.68;;;5.13;;
19727;SDS011;10015;52.530;13.390;2023-07-08T00:05:35;9.55;;;4.70;;
19727;SDS011;10015;52.530;13.390;2023-07-08T00:08:02;6.68;;;4.95;;
19727;SDS011;10015;52.530;13.390;2023-07-08T00:10:28;9.38;;;5.18;;
19727;SDS011;10015;52.530;13.390;2023-07-08T00:12:56;9.15;;;4.80;;
19727;SDS011;10015;52.530;13.390;2023-07-08T00:15:32;9.80;;;5.05;;
19727;SDS011;10015;52.530;13.390;2023-07-08T00:17:58;6.70;;;4.90;;
19727;SDS011;10015;52.530;13.390;2023-07-08T00:20:31;6.72;;;4.93;;
19727;SDS011;10015;52.530;13.390;2023-07-08T00:23:00;9.03;;;4.60;;
19727;SDS011;10015;52.530;13.390;2023-07-08T00:25:27;7.18;;;4.78;;
19727;SDS011;10015;52.530;13.390;2023-07-08T00:27:53;7.65;;;4.22;;
19727;SDS011;10015;52.530;13.390;2023-07-08T00:30:26;6.78;;;4.40;;
19727;SDS011;10015;52.530;13.390;2023-07-08T00:32:54;9.00;;;4.60;;
19727;SDS011;10015;52.530;13.390;2023-07-08T00:35:34;9.50;;;5.05;;
19727;SDS011;10015;52.530;13.390;2023-07-08T00:38:13;6.70;;;4.70;;
19727;SDS011;10015;52.530;13.390;2023-07-08T00:40:51;8.20;;;4.50;;
19727;SDS011;10015;52.530;13.390;2023-07-08T00:43:24;6.13;;;4.68;;
19727;SDS011;10015;52.530;13.390;2023-07-08T00:49:00;7.80;;;4.07;;
19727;SDS011;10015;52.530;13.390;2023-07-08T00:51:40;5.50;;;3.90;;
19727;SDS011;10015;52.530;13.390;2023-07-08T00:54:13;7.35;;;4.30;;
19727;SDS011;10015;52.530;13.390;2023-07-08T00:59:29;6.43;;;4.30;;
19727;SDS011;10015;52.530;13.390;2023-07-08T01:01:59;8.80;;;4.30;;
19727;SDS011;10015;52.530;13.390;2023-07-08T01:04:32;8.40;;;4.28;;
19727;SDS011;10015;52.530;13.390;2023-07-08T01:07:09;7.15;;;4.03;;
19727;SDS011;10015;52.530;13.390;2023-07-08T01:09:37;7.53;;;4.32;;
19727;SDS011;10015;52.530;13.390;2023-07-08T01:12:23;11.05;;;4.43;;
19727;SDS011;10015;52.530;13.390;2023-07-08T01:14:52;6.75;;;4.47;;
19727;SDS011;10015;52.530;13.390;2023-07-08T01:17:20;7.17;;;4.40;;
19727;SDS011;10015;52.530;13.390;2023-07-08T01:19:47;4.55;;;3.78;;
19727;SDS011;10015;52.530;13.390;2023-07-08T01:22:16;8.27;;;4.22;;
19727;SDS011;10015;52.530;13.390;2023-07-08T01:24:42;6.10;;;4.35;;
19727;SDS011;10015;52.530;13.390;2023-07-08T01:27:15;7.07;;;4.35;;
19727;SDS011;10015;52.530;13.390;2023-07-08T01:29:43;5.20;;;3.90;;
19727;SDS011;10015;52.530;13.390;2023-07-08T01:32:12;6.65;;;4.35;;
19727;SDS011;10015;52.530;13.390;2023-07-08T01:34:43;5.30;;;4.03;;
19727;SDS011;10015;52.530;13.390;2023-07-08T01:37:33;5.47;;;3.88;;
19727;SDS011;10015;52.530;13.390;2023-07-08T01:40:15;7.22;;;4.40;;
19727;SDS011;10015;52.530;13.390;2023-07-08T01:42:41;6.32;;;3.53;;
19727;SDS011;10015;52.530;13.390;2023-07-08T01:45:10;5.65;;;3.83;;
19727;SDS011;10015;52.530;13.390;2023-07-08T01:47:38;6.32;;;3.88;;
19727;SDS011;10015;52.530;13.390;2023-07-08T01:50:06;5.40;;;3.72;;
19727;SDS011;10015;52.530;13.390;2023-07-08T01:52:34;4.82;;;3.67;;
19727;SDS011;10015;52.530;13.390;2023-07-08T01:55:00;6.57;;;4.00;;
19727;SDS011;10015;52.530;13.390;2023-07-08T01:57:27;5.03;;;3.60;;
19727;SDS011;10015;52.530;13.390;2023-07-08T01:59:52;6.43;;;4.28;;
19727;SDS011;10015;52.530;13.390;2023-07-08T02:02:18;5.10;;;3.80;;
19727;SDS011;10015;52.530;13.390;2023-07-08T02:04:45;9.57;;;3.92;;
19727;SDS011;10015;52.530;13.390;2023-07-08T02:07:12;5.72;;;3.92;;
19727;SDS011;10015;52.530;13.390;2023-07-08T02:09:38;5.65;;;3.78;;
19727;SDS011;10015;52.530;13.390;2023-07-08T02:12:04;4.03;;;3.63;;
19727;SDS011;10015;52.530;13.390;2023-07-08T02:14:30;6.35;;;4.30;;
19727;SDS011;10015;52.530;13.390;2023-07-08T02:16:56;5.00;;;3.85;;
19727;SDS011;10015;52.530;13.390;2023-07-08T02:19:22;7.38;;;3.97;;
19727;SDS011;10015;52.530;13.390;2023-07-08T02:21:49;5.57;;;4.00;;
19727;SDS011;10015;52.530;13.390;2023-07-08T02:24:17;5.70;;;4.00;;
19727;SDS011;10015;52.530;13.390;2023-07-08T02:26:43;8.00;;;4.15;;
19727;SDS011;10015;52.530;13.390;2023-07-08T02:29:10;6.35;;;4.25;;
19727;SDS011;10015;52.530;13.390;2023-07-08T02:31:36;6.67;;;3.93;;
19727;SDS011;10015;52.530;13.390;2023-07-08T02:34:02;5.13;;;3.90;;
19727;SDS011;10015;52.530;13.390;2023-07-08T02:36:28;7.03;;;4.18;;
19727;SDS011;10015;52.530;13.390;2023-07-08T02:38:54;5.60;;;3.72;;
19727;SDS011;10015;52.530;13.390;2023-07-08T02:41:20;6.03;;;3.92;;
19727;SDS011;10015;52.530;13.390;2023-07-08T02:43:46;5.07;;;3.80;;
19727;SDS011;10015;52.530;13.390;2023-07-08T02:46:12;7.00;;;3.92;;
19727;SDS011;10015;52.530;13.390;2023-07-08T02:48:38;5.82;;;3.92;;
19727;SDS011;10015;52.530;13.390;2023-07-08T02:51:05;6.60;;;3.72;;
19727;SDS011;10015;52.530;13.390;2023-07-08T02:53:31;6.50;;;3.90;;
19727;SDS011;10015;52.530;13.390;2023-07-08T02:55:57;5.35;;;3.88;;
19727;SDS011;10015;52.530;13.390;2023-07-08T02:58:23;5.53;;;3.83;;
19727;SDS011;10015;52.530;13.390;2023-07-08T03:00:53;7.47;;;4.32;;
19727;SDS011;10015;52.530;13.390;2023-07-08T03:03:20;5.10;;;3.90;;
19727;SDS011;10015;52.530;13.390;2023-07-08T03:06:01;5.07;;;3.72;;
19727;SDS011;10015;52.530;13.390;2023-07-08T03:08:28;6.83;;;3.57;;
19727;SDS011;10015;52.530;13.390;2023-07-08T03:11:00;6.10;;;4.13;;
19727;SDS011;10015;52.530;13.390;2023-07-08T03:13:27;4.27;;;3.63;;
19727;SDS011;10015;52.530;13.390;2023-07-08T03:15:55;4.60;;;3.60;;
19727;SDS011;10015;52.530;13.390;2023-07-08T03:18:21;5.10;;;3.73;;
19727;SDS011;10015;52.530;13.390;2023-07-08T03:20:52;5.60;;;4.05;;
19727;SDS011;10015;52.530;13.390;2023-07-08T03:23:21;4.90;;;3.60;;
19727;SDS011;10015;52.530;13.390;2023-07-08T03:25:49;5.57;;;3.70;;
19727;SDS011;10015;52.530;13.390;2023-07-08T03:28:17;6.77;;;3.93;;
19727;SDS011;10015;52.530;13.390;2023-07-08T03:30:44;7.57;;;4.23;;
19727;SDS011;10015;52.530;13.390;2023-07-08T03:33:11;6.47;;;3.83;;
19727;SDS011;10015;52.530;13.390;2023-07-08T03:35:39;4.27;;;3.50;;
19727;SDS011;10015;52.530;13.390;2023-07-08T03:38:06;4.07;;;3.53;;
19727;SDS011;10015;52.530;13.390;2023-07-08T03:40:32;5.87;;;3.70;;
19727;SDS011;10015;52.530;13.390;2023-07-08T03:42:58;5.00;;;3.60;;
19727;SDS011;10015;52.530;13.390;2023-07-08T03:45:26;5.73;;;3.63;;
19727;SDS011;10015;52.530;13.390;2023-07-08T03:47:53;5.23;;;3.87;;
19727;SDS011;10015;52.530;13.390;2023-07-08T03:50:23;8.10;;;4.40;;
19727;SDS011;10015;52.530;13.390;2023-07-08T03:52:51;6.40;;;3.87;;
19727;SDS011;10015;52.530;13.390;2023-07-08T03:55:21;6.17;;;3.90;;
19727;SDS011;10015;52.530;13.390;2023-07-08T03:57:48;5.67;;;3.60;;
19727;SDS011;10015;52.530;13.390;2023-07-08T04:00:15;6.45;;;3.80;;
19727;SDS011;10015;52.530;13.390;2023-07-08T04:02:42;9.40;;;4.00;;
19727;SDS011;10015;52.530;13.390;2023-07-08T04:05:14;6.23;;;3.93;;
19727;SDS011;10015;52.530;13.390;2023-07-08T04:07:41;6.20;;;4.07;;
19727;SDS011;10015;52.530;13.390;2023-07-08T04:10:07;6.27;;;3.63;;
19727;SDS011;10015;52.530;13.390;2023-07-08T04:12:34;6.57;;;3.60;;
19727;SDS011;10015;52.530;13.390;2023-07-08T04:15:01;6.50;;;3.47;;
19727;SDS011;10015;52.530;13.390;2023-07-08T04:17:27;6.37;;;4.27;;
19727;SDS011;10015;52.530;13.390;2023-07-08T04:19:53;6.73;;;4.07;;
19727;SDS011;10015;52.530;13.390;2023-07-08T04:22:22;4.93;;;3.60;;
19727;SDS011;10015;52.530;13.390;2023-07-08T04:24:49;6.97;;;3.90;;
19727;SDS011;10015;52.530;13.390;2023-07-08T04:27:16;5.20;;;3.67;;
19727;SDS011;10015;52.530;13.390;2023-07-08T04:29:43;5.35;;;3.70;;
19727;SDS011;10015;52.530;13.390;2023-07-08T04:32:09;9.13;;;3.95;;
19727;SDS011;10015;52.530;13.390;2023-07-08T04:34:35;5.97;;;3.83;;
19727;SDS011;10015;52.530;13.390;2023-07-08T04:37:01;6.00;;;3.65;;
19727;SDS011;10015;52.530;13.390;2023-07-08T04:39:29;6.35;;;3.40;;
19727;SDS011;10015;52.530;13.390;2023-07-08T04:41:56;5.60;;;3.65;;
19727;SDS011;10015;52.530;13.390;2023-07-08T04:44:22;5.78;;;3.55;;
19727;SDS011;10015;52.530;13.390;2023-07-08T04:46:50;4.20;;;3.67;;
19727;SDS011;10015;52.530;13.390;2023-07-08T04:49:19;4.82;;;3.78;;
19727;SDS011;10015;52.530;13.390;2023-07-08T04:51:46;5.88;;;3.33;;
19727;SDS011;10015;52.530;13.390;2023-07-08T04:54:12;5.28;;;3.22;;
19727;SDS011;10015;52.530;13.390;2023-07-08T04:59:09;3.70;;;3.35;;
19727;SDS011;10015;52.530;13.390;2023-07-08T05:01:36;3.92;;;3.30;;
19727;SDS011;10015;52.530;13.390;2023-07-08T05:04:02;4.32;;;3.03;;
19727;SDS011;10015;52.530;13.390;2023-07-08T05:06:30;4.38;;;3.47;;
19727;SDS011;10015;52.530;13.390;2023-07-08T05:08:58;4.30;;;3.35;;
19727;SDS011;10015;52.530;13.390;2023-07-08T05:11:24;5.53;;;3.63;;
19727;SDS011;10015;52.530;13.390;2023-07-08T05:13:50;4.30;;;3.33;;
19727;SDS011;10015;52.530;13.390;2023-07-08T05:16:16;5.20;;;3.33;;
19727;SDS011;10015;52.530;13.390;2023-07-08T05:18:43;4.88;;;3.70;;
19727;SDS011;10015;52.530;13.390;2023-07-08T05:21:09;5.45;;;3.55;;
19727;SDS011;10015;52.530;13.390;2023-07-08T05:23:35;5.95;;;3.40;;
19727;SDS011;10015;52.530;13.390;2023-07-08T05:26:02;5.00;;;3.40;;
19727;SDS011;10015;52.530;13.390;2023-07-08T05:28:29;5.13;;;3.50;;
19727;SDS011;10015;52.530;13.390;2023-07-08T05:30:55;3.78;;;3.13;;
19727;SDS011;10015;52.530;13.390;2023-07-08T05:33:25;4.45;;;3.72;;
19727;SDS011;10015;52.530;13.390;2023-07-08T05:35:53;7.38;;;3.45;;
19727;SDS011;10015;52.530;13.390;2023-07-08T05:38:20;6.10;;;3.55;;
19727;SDS011;10015;52.530;13.390;2023-07-08T05:40:56;4.32;;;3.10;;
19727;SDS011;10015;52.530;13.390;2023-07-08T05:43:23;4.20;;;3.67;;
19727;SDS011;10015;52.530;13.390;2023-07-08T05:45:50;5.05;;;3.95;;
19727;SDS011;10015;52.530;13.390;2023-07-08T05:48:16;4.85;;;3.40;;
19727;SDS011;10015;52.530;13.390;2023-07-08T05:50:42;6.30;;;3.40;;
19727;SDS011;10015;52.530;13.390;2023-07-08T05:53:10;4.68;;;3.35;;
19727;SDS011;10015;52.530;13.390;2023-07-08T05:55:36;4.05;;;3.38;;
19727;SDS011;10015;52.530;13.390;2023-07-08T05:58:02;6.07;;;3.45;;
19727;SDS011;10015;52.530;13.390;2023-07-08T06:00:28;5.45;;;3.20;;
19727;SDS011;10015;52.530;13.390;2023-07-08T06:02:54;4.32;;;3.40;;
19727;SDS011;10015;52.530;13.390;2023-07-08T06:05:20;6.00;;;3.60;;
19727;SDS011;10015;52.530;13.390;2023-07-08T06:07:46;3.85;;;3.38;;
19727;SDS011;10015;52.530;13.390;2023-07-08T06:10:12;5.20;;;3.50;;
19727;SDS011;10015;52.530;13.390;2023-07-08T06:12:38;3.97;;;3.40;;
19727;SDS011;10015;52.530;13.390;2023-07-08T06:15:04;8.40;;;3.65;;
19727;SDS011;10015;52.530;13.390;2023-07-08T06:17:31;3.70;;;3.17;;
19727;SDS011;10015;52.530;13.390;2023-07-08T06:19:57;4.15;;;3.20;;
19727;SDS011;10015;52.530;13.390;2023-07-08T06:22:22;4.15;;;2.72;;
19727;SDS011;10015;52.530;13.390;2023-07-08T06:24:48;4.07;;;3.28;;
19727;SDS011;10015;52.530;13.390;2023-07-08T06:27:14;5.50;;;3.35;;
19727;SDS011;10015;52.530;13.390;2023-07-08T06:29:40;4.90;;;3.03;;
19727;SDS011;10015;52.530;13.390;2023-07-08T06:32:06;4.95;;;3.13;;
19727;SDS011;10015;52.530;13.390;2023-07-08T06:34:34;7.82;;;3.50;;
19727;SDS011;10015;52.530;13.390;2023-07-08T06:37:00;3.95;;;3.28;;
19727;SDS011;10015;52.530;13.390;2023-07-08T06:39:26;4.60;;;3.40;;
19727;SDS011;10015;52.530;13.390;2023-07-08T06:41:51;4.65;;;2.92;;
19727;SDS011;10015;52.530;13.390;2023-07-08T06:44:23;7.97;;;3.35;;
19727;SDS011;10015;52.530;13.390;2023-07-08T06:46:50;4.00;;;3.22;;
19727;SDS011;10015;52.530;13.390;2023-07-08T06:49:16;3.60;;;3.10;;
19727;SDS011;10015;52.530;13.390;2023-07-08T06:51:43;6.45;;;3.50;;
19727;SDS011;10015;52.530;13.390;2023-07-08T06:54:11;6.32;;;3.45;;
19727;SDS011;10015;52.530;13.390;2023-07-08T06:56:37;6.60;;;3.20;;
19727;SDS011;10015;52.530;13.390;2023-07-08T06:59:04;4.07;;;3.22;;
19727;SDS011;10015;52.530;13.390;2023-07-08T07:01:31;3.35;;;3.03;;
19727;SDS011;10015;52.530;13.390;2023-07-08T07:03:57;7.65;;;3.75;;
19727;SDS011;10015;52.530;13.390;2023-07-08T07:06:24;7.05;;;3.58;;
19727;SDS011;10015;52.530;13.390;2023-07-08T07:08:50;5.10;;;3.50;;
19727;SDS011;10015;52.530;13.390;2023-07-08T07:11:16;5.63;;;3.20;;
19727;SDS011;10015;52.530;13.390;2023-07-08T07:13:44;5.45;;;3.40;;
19727;SDS011;10015;52.530;13.390;2023-07-08T07:16:10;5.95;;;3.03;;
19727;SDS011;10015;52.530;13.390;2023-07-08T07:18:36;5.65;;;3.35;;
19727;SDS011;10015;52.530;13.390;2023-07-08T07:21:02;4.18;;;2.90;;
19727;SDS011;10015;52.530;13.390;2023-07-08T07:23:28;4.13;;;3.05;;
19727;SDS011;10015;52.530;13.390;2023-07-08T07:25:54;6.28;;;3.47;;
19727;SDS011;10015;52.530;13.390;2023-07-08T07:28:19;6.05;;;4.00;;
19727;SDS011;10015;52.530;13.390;2023-07-08T07:30:45;5.30;;;3.00;;
19727;SDS011;10015;52.530;13.390;2023-07-08T07:33:12;3.78;;;2.88;;
19727;SDS011;10015;52.530;13.390;2023-07-08T07:35:42;4.03;;;3.28;;
19727;SDS011;10015;52.530;13.390;2023-07-08T07:38:09;4.40;;;3.20;;
19727;SDS011;10015;52.530;13.390;2023-07-08T07:40:35;5.28;;;3.42;;
19727;SDS011;10015;52.530;13.390;2023-07-08T07:43:01;5.80;;;3.60;;
19727;SDS011;10015;52.530;13.390;2023-07-08T07:45:27;3.53;;;2.97;;
19727;SDS011;10015;52.530;13.390;2023-07-08T07:47:53;4.88;;;3.33;;
19727;SDS011;10015;52.530;13.390;2023-07-08T07:50:19;4.28;;;3.33;;
19727;SDS011;10015;52.530;13.390;2023-07-08T07:52:44;3.92;;;2.95;;
19727;SDS011;10015;52.530;13.390;2023-07-08T07:55:10;4.30;;;3.17;;
19727;SDS011;10015;52.530;13.390;2023-07-08T07:57:36;5.05;;;3.10;;
19727;SDS011;10015;52.530;13.390;2023-07-08T08:00:02;4.25;;;3.58;;
19727;SDS011;10015;52.530;13.390;2023-07-08T08:02:38;5.43;;;3.20;;
19727;SDS011;10015;52.530;13.390;2023-07-08T08:05:04;4.93;;;3.40;;
19727;SDS011;10015;52.530;13.390;2023-07-08T08:07:30;6.63;;;3.90;;
19727;SDS011;10015;52.530;13.390;2023-07-08T08:09:56;5.07;;;3.45;;
19727;SDS011;10015;52.530;13.390;2023-07-08T08:12:22;3.97;;;3.40;;
19727;SDS011;10015;52.530;13.390;2023-07-08T08:14:50;5.30;;;3.40;;
19727;SDS011;10015;52.530;13.390;2023-07-08T08:17:16;4.20;;;3.30;;
19727;SDS011;10015;52.530;13.390;2023-07-08T08:19:42;3.88;;;2.88;;
19727;SDS011;10015;52.530;13.390;2023-07-08T08:22:08;3.80;;;3.35;;
19727;SDS011;10015;52.530;13.390;2023-07-08T08:24:34;3.20;;;2.80;;
19727;SDS011;10015;52.530;13.390;2023-07-08T08:27:00;5.60;;;3.20;;
19727;SDS011;10015;52.530;13.390;2023-07-08T08:29:26;5.32;;;3.22;;
19727;SDS011;10015;52.530;13.390;2023-07-08T08:31:51;3.22;;;2.70;;
19727;SDS011;10015;52.530;13.390;2023-07-08T08:34:19;5.82;;;3.47;;
19727;SDS011;10015;52.530;13.390;2023-07-08T08:36:45;4.00;;;3.20;;
19727;SDS011;10015;52.530;13.390;2023-07-08T08:39:11;4.22;;;3.40;;
19727;SDS011;10015;52.530;13.390;2023-07-08T08:41:39;4.18;;;2.80;;
19727;SDS011;10015;52.530;13.390;2023-07-08T08:44:09;4.22;;;3.30;;
19727;SDS011;10015;52.530;13.390;2023-07-08T08:46:51;4.63;;;3.28;;
19727;SDS011;10015;52.530;13.390;2023-07-08T08:49:34;4.25;;;3.30;;
19727;SDS011;10015;52.530;13.390;2023-07-08T08:52:08;4.25;;;3.20;;
19727;SDS011;10015;52.530;13.390;2023-07-08T08:54:34;3.88;;;3.33;;
19727;SDS011;10015;52.530;13.390;2023-07-08T08:59:54;5.32;;;3.10;;
19727;SDS011;10015;52.530;13.390;2023-07-08T09:05:14;4.90;;;2.92;;
19727;SDS011;10015;52.530;13.390;2023-07-08T09:13:33;3.22;;;2.92;;
19727;SDS011;10015;52.530;13.390;2023-07-08T09:16:09;4.20;;;2.95;;
19727;SDS011;10015;52.530;13.390;2023-07-08T09:19:03;3.10;;;2.50;;
19727;SDS011;10015;52.530;13.390;2023-07-08T09:24:51;3.72;;;2.85;;
19727;SDS011;10015;52.530;13.390;2023-07-08T09:27:16;2.67;;;2.40;;
19727;SDS011;10015;52.530;13.390;2023-07-08T09:29:42;2.85;;;2.45;;
19727;SDS011;10015;52.530;13.390;2023-07-08T09:32:16;3.80;;;2.70;;
19727;SDS011;10015;52.530;13.390;2023-07-08T09:34:51;2.65;;;2.25;;
19727;SDS011;10015;52.530;13.390;2023-07-08T09:37:20;3.30;;;2.30;;
19727;SDS011;10015;52.530;13.390;2023-07-08T09:39:48;3.42;;;2.33;;
19727;SDS011;10015;52.530;13.390;2023-07-08T09:42:14;2.50;;;2.13;;
19727;SDS011;10015;52.530;13.390;2023-07-08T09:44:40;3.90;;;2.63;;
19727;SDS011;10015;52.530;13.390;2023-07-08T09:47:32;3.95;;;2.28;;
19727;SDS011;10015;52.530;13.390;2023-07-08T09:49:59;6.70;;;2.60;;
19727;SDS011;10015;52.530;13.390;2023-07-08T09:52:26;3.85;;;3.00;;
19727;SDS011;10015;52.530;13.390;2023-07-08T09:54:54;3.50;;;2.50;;
19727;SDS011;10015;52.530;13.390;2023-07-08T09:59:58;3.33;;;2.65;;
19727;SDS011;10015;52.530;13.390;2023-07-08T10:05:16;3.15;;;2.58;;
19727;SDS011;10015;52.530;13.390;2023-07-08T10:07:45;3.00;;;2.47;;
19727;SDS011;10015;52.530;13.390;2023-07-08T10:10:14;5.30;;;2.60;;
19727;SDS011;10015;52.530;13.390;2023-07-08T10:12:44;4.05;;;2.40;;
19727;SDS011;10015;52.530;13.390;2023-07-08T10:15:38;3.55;;;2.65;;
19727;SDS011;10015;52.530;13.390;2023-07-08T10:18:13;3.05;;;2.55;;
19727;SDS011;10015;52.530;13.390;2023-07-08T10:26:46;4.22;;;2.45;;
19727;SDS011;10015;52.530;13.390;2023-07-08T10:29:24;2.83;;;2.38;;
19727;SDS011;10015;52.530;13.390;2023-07-08T10:32:13;4.15;;;2.50;;
19727;SDS011;10015;52.530;13.390;2023-07-08T10:37:57;3.08;;;2.40;;
19727;SDS011;10015;52.530;13.390;2023-07-08T10:40:50;3.33;;;2.30;;
19727;SDS011;10015;52.530;13.390;2023-07-08T10:49:21;3.58;;;2.35;;
19727;SDS011;10015;52.530;13.390;2023-07-08T10:52:17;4.38;;;2.60;;
19727;SDS011;10015;52.530;13.390;2023-07-08T11:06:05;3.63;;;2.63;;
19727;SDS011;10015;52.530;13.390;2023-07-08T11:08:40;4.70;;;2.85;;
19727;SDS011;10015;52.530;13.390;2023-07-08T11:11:24;3.25;;;2.60;;
19727;SDS011;10015;52.530;13.390;2023-07-08T11:14:05;4.05;;;2.50;;
19727;SDS011;10015;52.530;13.390;2023-07-08T11:19:43;4.63;;;2.67;;
19727;SDS011;10015;52.530;13.390;2023-07-08T11:22:22;3.35;;;2.50;;
19727;SDS011;10015;52.530;13.390;2023-07-08T11:24:49;4.10;;;3.08;;
19727;SDS011;10015;52.530;13.390;2023-07-08T11:27:29;4.75;;;2.50;;
19727;SDS011;10015;52.530;13.390;2023-07-08T11:30:05;3.42;;;2.90;;
19727;SDS011;10015;52.530;13.390;2023-07-08T11:32:39;3.85;;;2.60;;
19727;SDS011;10015;52.530;13.390;2023-07-08T11:38:10;2.55;;;2.30;;
19727;SDS011;10015;52.530;13.390;2023-07-08T11:43:20;2.97;;;2.67;;
19727;SDS011;10015;52.530;13.390;2023-07-08T11:45:49;2.92;;;2.63;;
19727;SDS011;10015;52.530;13.390;2023-07-08T11:48:17;3.38;;;2.70;;
19727;SDS011;10015;52.530;13.390;2023-07-08T11:50:47;6.28;;;3.60;;
19727;SDS011;10015;52.530;13.390;2023-07-08T11:55:55;2.85;;;2.50;;
19727;SDS011;10015;52.530;13.390;2023-07-08T11:58:27;3.97;;;2.95;;
19727;SDS011;10015;52.530;13.390;2023-07-08T12:00:58;3.92;;;2.70;;
19727;SDS011;10015;52.530;13.390;2023-07-08T12:03:34;3.22;;;2.70;;
19727;SDS011;10015;52.530;13.390;2023-07-08T12:08:54;3.92;;;2.85;;
19727;SDS011;10015;52.530;13.390;2023-07-08T12:11:28;5.05;;;3.03;;
19727;SDS011;10015;52.530;13.390;2023-07-08T12:14:01;4.45;;;2.72;;
19727;SDS011;10015;52.530;13.390;2023-07-08T12:16:30;5.78;;;2.80;;
19727;SDS011;10015;52.530;13.390;2023-07-08T12:18:57;5.55;;;2.80;;
19727;SDS011;10015;52.530;13.390;2023-07-08T12:21:26;5.65;;;2.60;;
19727;SDS011;10015;52.530;13.390;2023-07-08T12:23:53;6.15;;;2.88;;
19727;SDS011;10015;52.530;13.390;2023-07-08T12:26:21;4.65;;;3.20;;
19727;SDS011;10015;52.530;13.390;2023-07-08T12:28:48;8.43;;;3.15;;
19727;SDS011;10015;52.530;13.390;2023-07-08T12:31:20;3.50;;;2.95;;
19727;SDS011;10015;52.530;13.390;2023-07-08T12:33:48;5.18;;;2.88;;
19727;SDS011;10015;52.530;13.390;2023-07-08T12:36:25;6.47;;;2.75;;
19727;SDS011;10015;52.530;13.390;2023-07-08T12:38:57;4.80;;;2.80;;
19727;SDS011;10015;52.530;13.390;2023-07-08T12:41:33;4.82;;;2.83;;
19727;SDS011;10015;52.530;13.390;2023-07-08T12:44:00;4.13;;;2.95;;
19727;SDS011;10015;52.530;13.390;2023-07-08T12:46:27;5.45;;;3.20;;
19727;SDS011;10015;52.530;13.390;2023-07-08T12:48:54;3.70;;;2.90;;
19727;SDS011;10015;52.530;13.390;2023-07-08T12:51:22;3.92;;;3.10;;
19727;SDS011;10015;52.530;13.390;2023-07-08T12:53:51;3.42;;;2.95;;
19727;SDS011;10015;52.530;13.390;2023-07-08T12:56:18;5.78;;;3.92;;
19727;SDS011;10015;52.530;13.390;2023-07-08T12:58:47;4.57;;;3.15;;
19727;SDS011;10015;52.530;13.390;2023-07-08T13:01:19;5.53;;;2.85;;
19727;SDS011;10015;52.530;13.390;2023-07-08T13:03:52;4.03;;;2.83;;
19727;SDS011;10015;52.530;13.390;2023-07-08T13:06:21;3.65;;;3.22;;
19727;SDS011;10015;52.530;13.390;2023-07-08T13:08:52;6.13;;;3.13;;
19727;SDS011;10015;52.530;13.390;2023-07-08T13:11:22;5.28;;;2.80;;
19727;SDS011;10015;52.530;13.390;2023-07-08T13:13:51;5.43;;;3.08;;
19727;SDS011;10015;52.530;13.390;2023-07-08T13:16:24;5.68;;;2.65;;
19727;SDS011;10015;52.530;13.390;2023-07-08T13:19:00;4.53;;;3.05;;
19727;SDS011;10015;52.530;13.390;2023-07-08T13:21:27;3.95;;;2.90;;
19727;SDS011;10015;52.530;13.390;2023-07-08T13:23:55;2.97;;;2.67;;
19727;SDS011;10015;52.530;13.390;2023-07-08T13:26:22;4.82;;;2.92;;
19727;SDS011;10015;52.530;13.390;2023-07-08T13:28:58;3.90;;;3.08;;
19727;SDS011;10015;52.530;13.390;2023-07-08T13:31:53;6.13;;;3.05;;
19727;SDS011;10015;52.530;13.390;2023-07-08T13:34:23;4.13;;;3.35;;
19727;SDS011;10015;52.530;13.390;2023-07-08T13:36:50;6.70;;;4.38;;
19727;SDS011;10015;52.530;13.390;2023-07-08T13:41:51;4.70;;;4.00;;
19727;SDS011;10015;52.530;13.390;2023-07-08T13:44:18;5.22;;;3.22;;
19727;SDS011;10015;52.530;13.390;2023-07-08T13:49:23;5.53;;;3.40;;
19727;SDS011;10015;52.530;13.390;2023-07-08T13:54:42;4.00;;;3.22;;
19727;SDS011;10015;52.530;13.390;2023-07-08T13:57:21;5.20;;;3.00;;
19727;SDS011;10015;52.530;13.390;2023-07-08T13:59:48;3.95;;;2.88;;
19727;SDS011;10015;52.530;13.390;2023-07-08T14:02:16;8.05;;;3.28;;
19727;SDS011;10015;52.530;13.390;2023-07-08T14:04:45;4.57;;;3.08;;
19727;SDS011;10015;52.530;13.390;2023-07-08T14:07:19;4.22;;;2.80;;
19727;SDS011;10015;52.530;13.390;2023-07-08T14:09:47;4.43;;;3.20;;
19727;SDS011;10015;52.530;13.390;2023-07-08T14:12:13;4.65;;;3.10;;
19727;SDS011;10015;52.530;13.390;2023-07-08T14:14:39;3.72;;;2.92;;
19727;SDS011;10015;52.530;13.390;2023-07-08T14:17:05;4.35;;;3.25;;
19727;SDS011;10015;52.530;13.390;2023-07-08T14:19:36;4.07;;;3.13;;
19727;SDS011;10015;52.530;13.390;2023-07-08T14:22:09;4.68;;;3.25;;
19727;SDS011;10015;52.530;13.390;2023-07-08T14:24:45;4.75;;;2.80;;
19727;SDS011;10015;52.530;13.390;2023-07-08T14:27:11;4.38;;;3.05;;
19727;SDS011;10015;52.530;13.390;2023-07-08T14:29:40;5.60;;;3.05;;
19727;SDS011;10015;52.530;13.390;2023-07-08T14:32:26;4.00;;;3.08;;
19727;SDS011;10015;52.530;13.390;2023-07-08T14:34:55;4.68;;;3.33;;
19727;SDS011;10015;52.530;13.390;2023-07-08T14:37:22;4.05;;;3.03;;
19727;SDS011;10015;52.530;13.390;2023-07-08T14:39:49;5.25;;;2.92;;
19727;SDS011;10015;52.530;13.390;2023-07-08T14:42:16;6.07;;;3.22;;
19727;SDS011;10015;52.530;13.390;2023-07-08T14:44:50;3.30;;;2.90;;
19727;SDS011;10015;52.530;13.390;2023-07-08T14:47:18;3.83;;;2.75;;
19727;SDS011;10015;52.530;13.390;2023-07-08T14:49:45;4.30;;;3.00;;
19727;SDS011;10015;52.530;13.390;2023-07-08T14:52:11;5.55;;;2.92;;
19727;SDS011;10015;52.530;13.390;2023-07-08T14:54:37;4.60;;;3.08;;
19727;SDS011;10015;52.530;13.390;2023-07-08T14:57:03;5.35;;;4.20;;
19727;SDS011;10015;52.530;13.390;2023-07-08T14:59:31;4.53;;;2.95;;
19727;SDS011;10015;52.530;13.390;2023-07-08T15:01:59;4.03;;;2.92;;
19727;SDS011;10015;52.530;13.390;2023-07-08T15:04:27;5.65;;;3.20;;
19727;SDS011;10015;52.530;13.390;2023-07-08T15:06:53;5.85;;;3.00;;
19727;SDS011;10015;52.530;13.390;2023-07-08T15:09:23;6.47;;;2.97;;
19727;SDS011;10015;52.530;13.390;2023-07-08T15:11:49;4.63;;;2.78;;
19727;SDS011;10015;52.530;13.390;2023-07-08T15:14:17;3.53;;;3.00;;
19727;SDS011;10015;52.530;13.390;2023-07-08T15:16:46;5.55;;;3.10;;
19727;SDS011;10015;52.530;13.390;2023-07-08T15:19:13;3.97;;;3.05;;
19727;SDS011;10015;52.530;13.390;2023-07-08T15:21:39;5.68;;;3.30;;
19727;SDS011;10015;52.530;13.390;2023-07-08T15:24:09;3.15;;;2.85;;
19727;SDS011;10015;52.530;13.390;2023-07-08T15:26:40;4.45;;;3.00;;
19727;SDS011;10015;52.530;13.390;2023-07-08T15:29:15;4.22;;;3.10;;
19727;SDS011;10015;52.530;13.390;2023-07-08T15:31:44;3.35;;;3.05;;
19727;SDS011;10015;52.530;13.390;2023-07-08T15:34:17;3.22;;;2.90;;
19727;SDS011;10015;52.530;13.390;2023-07-08T15:36:45;5.72;;;3.70;;
19727;SDS011;10015;52.530;13.390;2023-07-08T15:39:11;4.43;;;3.90;;
19727;SDS011;10015;52.530;13.390;2023-07-08T15:41:38;4.80;;;3.15;;
19727;SDS011;10015;52.530;13.390;2023-07-08T15:44:07;6.07;;;3.40;;
19727;SDS011;10015;52.530;13.390;2023-07-08T15:46:35;4.28;;;3.10;;
19727;SDS011;10015;52.530;13.390;2023-07-08T15:49:10;3.58;;;2.90;;
19727;SDS011;10015;52.530;13.390;2023-07-08T15:51:38;5.57;;;3.60;;
19727;SDS011;10015;52.530;13.390;2023-07-08T15:54:03;6.38;;;3.17;;
19727;SDS011;10015;52.530;13.390;2023-07-08T15:56:29;6.95;;;5.30;;
19727;SDS011;10015;52.530;13.390;2023-07-08T15:58:56;4.88;;;3.55;;
19727;SDS011;10015;52.530;13.390;2023-07-08T16:01:22;4.93;;;3.30;;